• Join FlightAware (Why Join?)
  • Login
  • US Flag 
06:45AM EDT


 

Airport Tracker/Info


-or-


 

Live Flight TrackerFlight Track Log ✈ AFL150 ✈ 23-Jan-2014 ✈ UUEE / SVO - MUHA / HAV

Flight Track Log - Related Links

Times and Time Zones

All times are in EST time to prevent confusion due to time zone crossing. See the AFL150 flight status page for this flight to view local times or setup timezone preferences in your user account.

Time Position Orientation Groundspeed Altitude Reporting Facility
EST Latitude Longitude Course Direction KTS MPH feet Rate Location/Type
04:35AM 56.1257 37.1726 307° West  Level Estimated
04:36AM 56.1936 37.0080 307° West  Level Estimated
04:37AM 56.2613 36.8429 306° West  Level Estimated
04:38AM 56.3288 36.6772 306° West  Level Estimated
04:39AM 56.3961 36.5108 306° West  Level Estimated
04:40AM 56.4632 36.3439 306° West  Level Estimated
04:41AM 56.5300 36.1765 306° West  Level Estimated
04:42AM 56.5966 36.0084 306° West  Level Estimated
04:43AM 56.6630 35.8397 306° West  Level Estimated
04:44AM 56.7291 35.6705 306° West  Level Estimated
04:45AM 56.7950 35.5006 305° West  Level Estimated
04:46AM 56.8607 35.3302 305° West  Level Estimated
04:47AM 56.9262 35.1591 305° West  Level Estimated
04:48AM 56.9914 34.9875 305° West  Level Estimated
04:49AM 57.0563 34.8152 305° West  Level Estimated
04:50AM 57.1211 34.6423 305° West  Level Estimated
04:51AM 57.1856 34.4689 305° West  Level Estimated
04:52AM 57.2498 34.2948 304° West  Level Estimated
04:53AM 57.3139 34.1202 304° West  Level Estimated
04:54AM 57.3776 33.9449 304° West  Level Estimated
04:55AM 57.4403 33.7713 304° West  Level Estimated
04:56AM 57.5028 33.5971 304° West  Level Estimated
04:57AM 57.5650 33.4223 304° West  Level Estimated
04:58AM 57.6270 33.2469 303° West  Level Estimated
04:59AM 57.6888 33.0710 303° West  Level Estimated
05:00AM 57.7503 32.8944 303° West  Level Estimated
05:01AM 57.8115 32.7172 303° West  Level Estimated
05:02AM 57.8725 32.5395 303° West  Level Estimated
05:03AM 57.9333 32.3611 303° West  Level Estimated
05:04AM 57.9938 32.1821 303° West  Level Estimated
05:05AM 58.0540 32.0025 302° West  Level Estimated
05:06AM 58.1140 31.8223 302° West  Level Estimated
05:07AM 58.1737 31.6415 302° West  Level Estimated
05:08AM 58.2332 31.4601 302° West  Level Estimated
05:09AM 58.2924 31.2781 302° West  Level Estimated
05:10AM 58.3514 31.0955 302° West  Level Estimated
05:11AM 58.4101 30.9122 302° West  Level Estimated
05:12AM 58.4686 30.7284 301° West  Level Estimated
05:13AM 58.5267 30.5439 301° West  Level Estimated
05:14AM 58.5847 30.3589 301° West  Level Estimated
05:15AM 58.6423 30.1732 301° West  Level Estimated
05:16AM 58.6997 29.9869 301° West  Level Estimated
05:17AM 58.7568 29.8000 301° West  Level Estimated
05:18AM 58.8136 29.6125 300° West  Level Estimated
05:19AM 58.8702 29.4244 300° West  Level Estimated
05:20AM 58.9265 29.2356 300° West  Level Estimated
05:21AM 58.9825 29.0463 300° West  Level Estimated
05:22AM 59.0382 28.8563 300° West  Level Estimated
05:23AM 59.0937 28.6657 300° West  Level Estimated
05:24AM 59.1489 28.4745 299° West  Level Estimated
05:25AM 59.2038 28.2827 299° West  Level Estimated
05:26AM 59.2584 28.0902 299° West  Level Estimated
05:27AM 59.3127 27.8972 299° West  Level Estimated
05:28AM 59.3668 27.7035 299° West  Level Estimated
05:29AM 59.4205 27.5092 299° West  Level Estimated
05:30AM 59.4740 27.3143 298° West  Level Estimated
05:31AM 59.5271 27.1188 298° West  Level Estimated
05:32AM 59.5800 26.9226 298° West  Level Estimated
05:33AM 59.6326 26.7259 298° West  Level Estimated
05:34AM 59.6849 26.5285 298° West  Level Estimated
05:35AM 59.7369 26.3305 298° West  Level Estimated
05:36AM 59.7886 26.1319 297° West  Level Estimated
05:37AM 59.8400 25.9327 297° West  Level Estimated
05:38AM 59.8911 25.7329 297° West  Level Estimated
05:39AM 59.9419 25.5325 297° West  Level Estimated
05:40AM 59.9924 25.3314 297° West  Level Estimated
05:41AM 60.0425 25.1297 297° West  Level Estimated
05:42AM 60.0924 24.9275 296° West  Level Estimated
05:43AM 60.1420 24.7246 296° West  Level Estimated
05:44AM 60.1912 24.5211 296° West  Level Estimated
05:45AM 60.2402 24.3170 296° West  Level Estimated
05:46AM 60.2888 24.1122 296° West  Level Estimated
05:47AM 60.3371 23.9069 295° West  Level Estimated
05:48AM 60.3851 23.7010 295° West  Level Estimated
05:49AM 60.4328 23.4944 295° West  Level Estimated
05:50AM 60.4801 23.2873 295° West  Level Estimated
05:51AM 60.5271 23.0795 295° West  Level Estimated
05:52AM 60.5738 22.8712 295° West  Level Estimated
05:53AM 60.6202 22.6623 294° West  Level Estimated
05:54AM 60.6663 22.4527 294° West  Level Estimated
05:55AM 60.7120 22.2425 294° West  Level Estimated
05:56AM 60.7574 22.0318 294° West  Level Estimated
05:57AM 60.8024 21.8205 294° West  Level Estimated
05:58AM 60.8472 21.6085 294° West  Level Estimated
05:59AM 60.8916 21.3960 293° West  Level Estimated
06:00AM 60.9356 21.1829 293° West  Level Estimated
06:01AM 60.9793 20.9692 293° West  Level Estimated
06:02AM 61.0227 20.7549 293° West  Level Estimated
06:03AM 61.0658 20.5401 293° West  Level Estimated
06:04AM 61.1085 20.3246 292° West  Level Estimated
06:05AM 61.1508 20.1085 292° West  Level Estimated
06:06AM 61.1928 19.8919 292° West  Level Estimated
06:07AM 61.2345 19.6747 292° West  Level Estimated
06:08AM 61.2758 19.4570 292° West  Level Estimated
06:09AM 61.3168 19.2386 291° West  Level Estimated
06:10AM 61.3574 19.0197 291° West  Level Estimated
06:11AM 61.3977 18.8003 291° West  Level Estimated
06:12AM 61.4376 18.5802 291° West  Level Estimated
06:13AM 61.4771 18.3596 291° West  Level Estimated
06:14AM 61.5163 18.1385 290° West  Level Estimated
06:15AM 61.5552 17.9167 290° West  Level Estimated
06:16AM 61.5937 17.6945 290° West  Level Estimated
06:17AM 61.6318 17.4717 290° West  Level Estimated
06:18AM 61.6695 17.2483 290° West  Level Estimated
06:19AM 61.7069 17.0244 289° West  Level Estimated
06:20AM 61.7439 16.8000 289° West  Level Estimated
06:21AM 61.7806 16.5750 289° West  Level Estimated
06:22AM 61.8169 16.3495 289° West  Level Estimated
06:23AM 61.8528 16.1234 289° West  Level Estimated
06:24AM 61.8883 15.8968 289° West  Level Estimated
06:25AM 61.9235 15.6697 288° West  Level Estimated
06:26AM 61.9583 15.4421 288° West  Level Estimated
06:27AM 61.9927 15.2140 288° West  Level Estimated
06:28AM 62.0267 14.9853 288° West  Level Estimated
06:29AM 62.0604 14.7562 287° West  Level Estimated
06:30AM 62.0937 14.5265 287° West  Level Estimated
06:31AM 62.1266 14.2963 287° West  Level Estimated
06:32AM 62.1591 14.0657 287° West  Level Estimated
06:33AM 62.1912 13.8345 287° West  Level Estimated
06:34AM 62.2230 13.6028 286° West  Level Estimated
06:35AM 62.2543 13.3707 286° West  Level Estimated
06:36AM 62.2853 13.1381 286° West  Level Estimated
06:37AM 62.3159 12.9050 286° West  Level Estimated
06:38AM 62.3461 12.6715 286° West  Level Estimated
06:39AM 62.3759 12.4374 285° West  Level Estimated
06:40AM 62.4053 12.2029 285° West  Level Estimated
06:41AM 62.4343 11.9680 285° West  Level Estimated
06:42AM 62.4629 11.7326 285° West  Level Estimated
06:43AM 62.4911 11.4967 285° West  Level Estimated
06:44AM 62.5190 11.2605 284° West  Level Estimated
06:45AM 62.5464 11.0237 284° West  Level Estimated
06:46AM 62.5734 10.7866 284° West  Level Estimated
06:47AM 62.6000 10.5490 284° West  Level Estimated
06:48AM 62.6262 10.3110 284° West  Level Estimated
06:49AM 62.6520 10.0725 283° West  Level Estimated
06:50AM 62.6774 9.8337 283° West  Level Estimated
06:51AM 62.7024 9.5944 283° West  Level Estimated
06:52AM 62.7270 9.3548 283° West  Level Estimated
06:53AM 62.7512 9.1147 283° West  Level Estimated
06:54AM 62.7750 8.8743 282° West  Level Estimated
06:55AM 62.7983 8.6334 282° West  Level Estimated
06:56AM 62.8213 8.3923 282° West  Level Estimated
06:57AM 62.8438 8.1507 282° West  Level Estimated
06:58AM 62.8659 7.9087 281° West  Level Estimated
06:59AM 62.8876 7.6664 281° West  Level Estimated
07:00AM 62.9089 7.4237 281° West  Level Estimated
07:01AM 62.9298 7.1807 281° West  Level Estimated
07:02AM 62.9502 6.9374 281° West  Level Estimated
07:03AM 62.9703 6.6937 280° West  Level Estimated
07:04AM 62.9899 6.4497 280° West  Level Estimated
07:05AM 63.0091 6.2053 280° West  Level Estimated
07:06AM 63.0279 5.9607 280° West  Level Estimated
07:07AM 63.0462 5.7157 279° West  Level Estimated
07:08AM 63.0641 5.4704 279° West  Level Estimated
07:09AM 63.0816 5.2248 279° West  Level Estimated
07:10AM 63.0987 4.9790 279° West  Level Estimated
07:11AM 63.1153 4.7328 279° West  Level Estimated
07:12AM 63.1316 4.4864 278° West  Level Estimated
07:13AM 63.1474 4.2396 278° West  Level Estimated
07:14AM 63.1627 3.9927 278° West  Level Estimated
07:15AM 63.1776 3.7455 278° West  Level Estimated
07:16AM 63.1921 3.4980 278° West  Level Estimated
07:17AM 63.2062 3.2502 277° West  Level Estimated
07:18AM 63.2198 3.0023 277° West  Level Estimated
07:19AM 63.2331 2.7541 277° West  Level Estimated
07:20AM 63.2458 2.5057 277° West  Level Estimated
07:21AM 63.2582 2.2570 276° West  Level Estimated
07:22AM 63.2701 2.0082 276° West  Level Estimated
07:23AM 63.2816 1.7592 276° West  Level Estimated
07:24AM 63.2926 1.5099 276° West  Level Estimated
07:25AM 63.3032 1.2605 276° West  Level Estimated
07:26AM 63.3134 1.0109 275° West  Level Estimated
07:27AM 63.3231 0.7611 275° West  Level Estimated
07:28AM 63.3324 0.5112 275° West  Level Estimated
07:29AM 63.3413 0.2610 275° West  Level Estimated
07:30AM 63.3497 0.0108 274° West  Level Estimated
07:31AM 63.3577 -0.2396 274° West  Level Estimated
07:32AM 63.3652 -0.4901 274° West  Level Estimated
07:33AM 63.3723 -0.7408 274° West  Level Estimated
07:34AM 63.3790 -0.9916 274° West  Level Estimated
07:35AM 63.3852 -1.2425 273° West  Level Estimated
07:36AM 63.3910 -1.4935 273° West  Level Estimated
07:37AM 63.3963 -1.7445 273° West  Level Estimated
07:38AM 63.4012 -1.9957 273° West  Level Estimated
07:39AM 63.4057 -2.2470 272° West  Level Estimated
07:40AM 63.4097 -2.4983 272° West  Level Estimated
07:41AM 63.4133 -2.7497 272° West  Level Estimated
07:42AM 63.4164 -3.0012 272° West  Level Estimated
07:43AM 63.4191 -3.2527 271° West  Level Estimated
07:44AM 63.4214 -3.5043 271° West  Level Estimated
07:45AM 63.4232 -3.7559 271° West  Level Estimated
07:46AM 63.4245 -4.0075 271° West  Level Estimated
07:47AM 63.4255 -4.2591 271° West  Level Estimated
07:48AM 63.4260 -4.5108 270° West  Level Estimated
07:49AM 63.4260 -4.7625 270° West  Level Estimated
07:50AM 63.4256 -5.0141 270° West  Level Estimated
07:51AM 63.4248 -5.2658 270° West  Level Estimated
07:52AM 63.4235 -5.5174 269° West  Level Estimated
07:53AM 63.4217 -5.7690 269° West  Level Estimated
07:54AM 63.4196 -6.0206 269° West  Level Estimated
07:55AM 63.4170 -6.2721 269° West  Level Estimated
07:56AM 63.4139 -6.5236 269° West  Level Estimated
07:57AM 63.4104 -6.7750 268° West  Level Estimated
07:58AM 63.4065 -7.0263 268° West  Level Estimated
07:59AM 63.4021 -7.2776 268° West  Level Estimated
08:00AM 63.3973 -7.5288 268° West  Level Estimated
08:01AM 63.3920 -7.7799 267° West  Level Estimated
08:02AM 63.3863 -8.0309 267° West  Level Estimated
08:03AM 63.3802 -8.2818 267° West  Level Estimated
08:04AM 63.3736 -8.5326 267° West  Level Estimated
08:05AM 63.3666 -8.7833 267° West  Level Estimated
08:06AM 63.3591 -9.0339 266° West  Level Estimated
08:07AM 63.3512 -9.2843 266° West  Level Estimated
08:08AM 63.3429 -9.5346 266° West  Level Estimated
08:09AM 63.3341 -9.7847 266° West  Level Estimated
08:10AM 63.3249 -10.0347 265° West  Level Estimated
08:11AM 63.3153 -10.2845 265° West  Level Estimated
08:12AM 63.3052 -10.5341 265° West  Level Estimated
08:13AM 63.2947 -10.7836 265° West  Level Estimated
08:14AM 63.2837 -11.0329 265° West  Level Estimated
08:15AM 63.2723 -11.2820 264° West  Level Estimated
08:16AM 63.2605 -11.5308 264° West  Level Estimated
08:17AM 63.2482 -11.7795 264° West  Level Estimated
08:18AM 63.2355 -12.0280 264° West  Level Estimated
08:19AM 63.2224 -12.2762 263° West  Level Estimated
08:20AM 63.2088 -12.5242 263° West  Level Estimated
08:21AM 63.1949 -12.7720 263° West  Level Estimated
08:22AM 63.1804 -13.0195 263° West  Level Estimated
08:23AM 63.1656 -13.2668 263° West  Level Estimated
08:24AM 63.1503 -13.5138 262° West  Level Estimated
08:25AM 63.1346 -13.7606 262° West  Level Estimated
08:26AM 63.1185 -14.0071 262° West  Level Estimated
08:27AM 63.1019 -14.2533 262° West  Level Estimated
08:28AM 63.0849 -14.4992 261° West  Level Estimated
08:29AM 63.0675 -14.7449 261° West  Level Estimated
08:30AM 63.0496 -14.9902 261° West  Level Estimated
08:31AM 63.0314 -15.2352 261° West  Level Estimated
08:32AM 63.0127 -15.4799 261° West  Level Estimated
08:33AM 62.9936 -15.7244 260° West  Level Estimated
08:34AM 62.9740 -15.9684 260° West  Level Estimated
08:35AM 62.9541 -16.2122 260° West  Level Estimated
08:36AM 62.9337 -16.4556 260° West  Level Estimated
08:37AM 62.9129 -16.6987 259° West  Level Estimated
08:38AM 62.8917 -16.9414 259° West  Level Estimated
08:39AM 62.8701 -17.1838 259° West  Level Estimated
08:40AM 62.8480 -17.4258 259° West  Level Estimated
08:41AM 62.8256 -17.6675 259° West  Level Estimated
08:42AM 62.8027 -17.9088 258° West  Level Estimated
08:43AM 62.7794 -18.1497 258° West  Level Estimated
08:44AM 62.7558 -18.3902 258° West  Level Estimated
08:45AM 62.7317 -18.6303 258° West  Level Estimated
08:46AM 62.7071 -18.8700 258° West  Level Estimated
08:47AM 62.6822 -19.1094 257° West  Level Estimated
08:48AM 62.6569 -19.3483 257° West  Level Estimated
08:49AM 62.6312 -19.5868 257° West  Level Estimated
08:50AM 62.6050 -19.8249 257° West  Level Estimated
08:51AM 62.5785 -20.0626 256° West  Level Estimated
08:52AM 62.5516 -20.2998 256° West  Level Estimated
08:53AM 62.5242 -20.5366 256° West  Level Estimated
08:54AM 62.4965 -20.7730 256° West  Level Estimated
08:55AM 62.4683 -21.0089 256° West  Level Estimated
08:56AM 62.4398 -21.2444 255° West  Level Estimated
08:57AM 62.4109 -21.4795 255° West  Level Estimated
08:58AM 62.3815 -21.7141 255° West  Level Estimated
08:59AM 62.3518 -21.9482 255° West  Level Estimated
09:00AM 62.3217 -22.1818 255° West  Level Estimated
09:01AM 62.2912 -22.4150 254° West  Level Estimated
09:02AM 62.2603 -22.6477 254° West  Level Estimated
09:03AM 62.2290 -22.8799 254° West  Level Estimated
09:04AM 62.1973 -23.1117 254° West  Level Estimated
09:05AM 62.1652 -23.3429 254° West  Level Estimated
09:06AM 62.1328 -23.5737 253° West  Level Estimated
09:07AM 62.1000 -23.8039 253° West  Level Estimated
09:08AM 62.0668 -24.0337 253° West  Level Estimated
09:09AM 62.0332 -24.2630 253° West  Level Estimated
09:10AM 61.9992 -24.4917 253° West  Level Estimated
09:11AM 61.9649 -24.7199 252° West  Level Estimated
09:12AM 61.9301 -24.9477 252° West  Level Estimated
09:13AM 61.8950 -25.1749 252° West  Level Estimated
09:14AM 61.8596 -25.4015 252° West  Level Estimated
09:15AM 61.8237 -25.6277 252° West  Level Estimated
09:16AM 61.7875 -25.8533 251° West  Level Estimated
09:17AM 61.7509 -26.0784 251° West  Level Estimated
09:18AM 61.7140 -26.3029 251° West  Level Estimated
09:19AM 61.6767 -26.5270 251° West  Level Estimated
09:20AM 61.6390 -26.7504 251° West  Level Estimated
09:21AM 61.6009 -26.9734 250° West  Level Estimated
09:22AM 61.5625 -27.1957 250° West  Level Estimated
09:23AM 61.5238 -27.4175 250° West  Level Estimated
09:24AM 61.4846 -27.6388 250° West  Level Estimated
09:25AM 61.4451 -27.8595 250° West  Level Estimated
09:26AM 61.4053 -28.0796 249° West  Level Estimated
09:27AM 61.3651 -28.2992 249° West  Level Estimated
09:28AM 61.3246 -28.5182 249° West  Level Estimated
09:29AM 61.2837 -28.7367 249° West  Level Estimated
09:30AM 61.2379 -28.9780 249° West  Level Estimated
09:31AM 61.1918 -29.2188 248° West  Level Estimated
09:32AM 61.1451 -29.4590 248° West  Level Estimated
09:33AM 61.0981 -29.6984 248° West  Level Estimated
09:34AM 61.0507 -29.9371 248° West  Level Estimated
09:35AM 61.0028 -30.1751 248° West  Level Estimated
09:36AM 60.9545 -30.4124 247° West  Level Estimated
09:37AM 60.9058 -30.6490 247° West  Level Estimated
09:38AM 60.8566 -30.8848 247° West  Level Estimated
09:39AM 60.8071 -31.1199 247° West  Level Estimated
09:40AM 60.7571 -31.3543 247° West  Level Estimated
09:41AM 60.7068 -31.5879 246° West  Level Estimated
09:42AM 60.6560 -31.8208 246° West  Level Estimated
09:43AM 60.6049 -32.0530 246° West  Level Estimated
09:44AM 60.5533 -32.2844 246° West  Level Estimated
09:45AM 60.5013 -32.5151 246° West  Level Estimated
09:46AM 60.4490 -32.7451 245° Southwest  Level Estimated
09:47AM 60.3962 -32.9743 245° Southwest  Level Estimated
09:48AM 60.3430 -33.2028 245° Southwest  Level Estimated
09:49AM 60.2895 -33.4305 245° Southwest  Level Estimated
09:50AM 60.2356 -33.6575 245° Southwest  Level Estimated
09:51AM 60.1813 -33.8837 244° Southwest  Level Estimated
09:52AM 60.1266 -34.1092 244° Southwest  Level Estimated
09:53AM 60.0715 -34.3339 244° Southwest  Level Estimated
09:54AM 60.0160 -34.5579 244° Southwest  Level Estimated
09:55AM 59.9602 -34.7811 244° Southwest  Level Estimated
09:56AM 59.9040 -35.0036 243° Southwest  Level Estimated
09:57AM 59.8474 -35.2253 243° Southwest  Level Estimated
09:58AM 59.7904 -35.4462 243° Southwest  Level Estimated
09:59AM 59.7331 -35.6664 243° Southwest  Level Estimated
10:00AM 59.6754 -35.8859 243° Southwest  Level Estimated
10:01AM 59.6173 -36.1046 242° Southwest  Level Estimated
10:02AM 59.5589 -36.3225 242° Southwest  Level Estimated
10:03AM 59.5001 -36.5397 242° Southwest  Level Estimated
10:04AM 59.4410 -36.7561 242° Southwest  Level Estimated
10:05AM 59.3815 -36.9718 242° Southwest  Level Estimated
10:06AM 59.3217 -37.1867 241° Southwest  Level Estimated
10:07AM 59.2614 -37.4008 241° Southwest  Level Estimated
10:08AM 59.2009 -37.6142 241° Southwest  Level Estimated
10:09AM 59.1400 -37.8268 241° Southwest  Level Estimated
10:10AM 59.0787 -38.0387 241° Southwest  Level Estimated
10:11AM 59.0171 -38.2498 241° Southwest  Level Estimated
10:12AM 58.9552 -38.4602 240° Southwest  Level Estimated
10:13AM 58.8929 -38.6698 240° Southwest  Level Estimated
10:14AM 58.8303 -38.8786 240° Southwest  Level Estimated
10:15AM 58.7673 -39.0867 240° Southwest  Level Estimated
10:16AM 58.7041 -39.2940 240° Southwest  Level Estimated
10:17AM 58.6404 -39.5006 239° Southwest  Level Estimated
10:18AM 58.5765 -39.7065 239° Southwest  Level Estimated
10:19AM 58.5122 -39.9115 239° Southwest  Level Estimated
10:20AM 58.4476 -40.1158 239° Southwest  Level Estimated
10:21AM 58.3827 -40.3194 239° Southwest  Level Estimated
10:22AM 58.3175 -40.5222 239° Southwest  Level Estimated
10:23AM 58.2519 -40.7243 238° Southwest  Level Estimated
10:24AM 58.1860 -40.9256 238° Southwest  Level Estimated
10:25AM 58.1198 -41.1262 238° Southwest  Level Estimated
10:26AM 58.0533 -41.3260 238° Southwest  Level Estimated
10:27AM 57.9865 -41.5251 238° Southwest  Level Estimated
10:28AM 57.9193 -41.7235 238° Southwest  Level Estimated
10:29AM 57.8519 -41.9211 237° Southwest  Level Estimated
10:30AM 57.7842 -42.1180 237° Southwest  Level Estimated
10:31AM 57.7161 -42.3141 237° Southwest  Level Estimated
10:32AM 57.6478 -42.5095 237° Southwest  Level Estimated
10:33AM 57.5791 -42.7041 237° Southwest  Level Estimated
10:34AM 57.5102 -42.8979 237° Southwest  Level Estimated
10:35AM 57.4410 -43.0910 236° Southwest  Level Estimated
10:36AM 57.3715 -43.2834 236° Southwest  Level Estimated
10:37AM 57.3017 -43.4751 236° Southwest  Level Estimated
10:37AM 63.1333 -56.8167 235° Southwest 440 506 37,000  Level Gander Center
10:38AM 57.2315 -43.6660 236° Southwest  Level Estimated
10:38AM 63.0667 -57.0000 231° Southwest 430 495 37,000  Level Gander Center
10:39AM 57.1612 -43.8562 236° Southwest  Level Estimated
10:39AM 63.0000 -57.2333 238° Southwest 440 506 37,000  Level Gander Center
10:40AM 57.0905 -44.0457 236° Southwest  Level Estimated
10:40AM 62.9167 -57.4667 232° Southwest 430 495 37,000  Level Gander Center
10:41AM 57.0195 -44.2344 235° Southwest  Level Estimated
10:41AM 62.8667 -57.6833 243° Southwest 440 506 37,000  Level Gander Center
10:42AM 56.9483 -44.4224 235° Southwest  Level Estimated
10:42AM 62.8000 -57.8833 234° Southwest 440 506 37,000  Level Gander Center
10:43AM 62.7167 -58.1000 230° Southwest 440 506 37,000  Level Gander Center
10:44AM 62.6667 -58.3167 243° Southwest 440 506 37,000  Level Gander Center
10:45AM 62.6000 -58.5500 238° Southwest 440 506 37,000  Level Gander Center
10:46AM 62.5000 -58.7333 220° Southwest 430 495 37,000  Level Montreal Center
10:47AM 62.4333 -58.9500 236° Southwest 430 495 37,000  Level Montreal Center
10:48AM 62.3500 -59.1500 228° Southwest 430 495 37,000  Level Montreal Center
10:49AM 62.3000 -59.3667 244° Southwest 430 495 37,000  Level Montreal Center
10:50AM 62.2167 -59.5833 231° Southwest 440 506 37,000  Level Montreal Center
10:51AM 62.1333 -59.7833 228° Southwest 440 506 37,000  Level Montreal Center
10:52AM 62.0833 -60.0000 244° Southwest 440 506 37,000  Level Montreal Center
10:53AM 62.0000 -60.2167 231° Southwest 440 506 37,000  Level Montreal Center
10:54AM 61.9167 -60.4000 226° Southwest 440 506 37,000  Level Montreal Center
10:55AM 61.8667 -60.5667 238° Southwest 440 506 37,000  Level Montreal Center
10:56AM 61.8000 -60.7833 237° Southwest 440 506 37,000  Level Montreal Center
10:57AM 61.7167 -60.9667 226° Southwest 440 506 37,000  Level Montreal Center
10:58AM 61.6500 -61.2500 244° Southwest 440 506 37,000  Level Gander Center
10:59AM 61.5833 -61.4500 235° Southwest 440 506 37,000 420 Level Gander Center
11:00AM 61.5000 -61.6667 231° Southwest 440 506 37,900 480 Climbing Gander Center
11:01AM 61.4167 -61.8000 217° Southwest 440 506 38,000  Climbing Montreal Center
11:02AM 61.3500 -62.0000 235° Southwest 440 506 38,000  Level Montreal Center
11:03AM 61.2667 -62.2167 231° Southwest 440 506 38,000  Level Montreal Center
11:04AM 61.1833 -62.4167 229° Southwest 440 506 38,000  Level Montreal Center
11:05AM 61.1167 -62.6000 233° Southwest 440 506 38,000  Level Montreal Center
11:06AM 61.0333 -62.8000 229° Southwest 440 506 38,000  Level Montreal Center
11:07AM 60.9500 -63.0167 232° Southwest 440 506 38,000  Level Montreal Center
11:08AM 60.8667 -63.2167 229° Southwest 460 529 38,000  Level Montreal Center
11:09AM 60.8000 -63.4333 238° Southwest 440 506 38,000  Level Montreal Center
11:10AM 60.7167 -63.6333 230° Southwest 440 506 38,000  Level Montreal Center
11:11AM 60.6333 -63.8333 230° Southwest 440 506 38,000  Level Montreal Center
11:12AM 60.5500 -64.0333 230° Southwest 440 506 38,000  Level Montreal Center
11:13AM 60.4667 -64.2000 225° Southwest 440 506 38,000  Level Montreal Center
11:14AM 60.4000 -64.4000 236° Southwest 440 506 38,000  Level Montreal Center
11:15AM 60.3167 -64.6000 230° Southwest 440 506 38,000  Level Montreal Center
11:16AM 60.2500 -64.7667 231° Southwest 440 506 38,000  Level Montreal Center
11:17AM 60.1667 -64.9667 230° Southwest 440 506 38,000  Level Montreal Center
11:18AM 60.0667 -65.1500 222° Southwest 440 506 38,000  Level Montreal Center
11:19AM 59.9833 -65.3167 225° Southwest 440 506 38,000  Level Montreal Center
11:20AM 59.9000 -65.4833 225° Southwest 440 506 38,000  Level Montreal Center
11:21AM 59.8000 -65.6500 220° Southwest 440 506 38,000  Level Montreal Center
11:22AM 59.7000 -65.7833 214° Southwest 450 518 38,000  Level Montreal Center
11:23AM 59.6167 -65.9333 222° Southwest 450 518 38,000  Level Montreal Center
11:24AM 59.5167 -66.1000 220° Southwest 450 518 38,000  Level Montreal Center
11:25AM 59.4167 -66.3000 226° Southwest 450 518 38,000  Level Montreal Center
11:26AM 59.3333 -66.4500 223° Southwest 450 518 38,000  Level Montreal Center
11:27AM 59.2333 -66.6167 220° Southwest 450 518 38,000  Level Montreal Center
11:28AM 59.1333 -66.7667 218° Southwest 450 518 38,000  Level Montreal Center
11:29AM 59.0333 -66.9333 221° Southwest 450 518 38,000  Level Montreal Center
11:30AM 58.9500 -67.0833 223° Southwest 450 518 38,000  Level Montreal Center
11:31AM 58.8500 -67.2333 218° Southwest 450 518 38,000  Level Montreal Center
11:32AM 58.7500 -67.4000 221° Southwest 450 518 38,000  Level Montreal Center
11:33AM 58.6500 -67.5500 218° Southwest 450 518 38,000  Level Montreal Center
11:34AM 58.5667 -67.7000 223° Southwest 450 518 38,000  Level Montreal Center
11:35AM 58.4667 -67.8500 218° Southwest 450 518 38,000  Level Montreal Center
11:36AM 58.3667 -68.0000 218° Southwest 450 518 38,000  Level Montreal Center
11:37AM 58.2667 -68.1500 218° Southwest 450 518 38,000  Level Montreal Center
11:38AM 58.1667 -68.3000 218° Southwest 470 541 38,000  Level Montreal Center
11:40AM 57.9667 -68.5667 215° Southwest 460 529 38,000  Level Montreal Center
11:41AM 57.8833 -68.7167 224° Southwest 450 518 38,000  Level Montreal Center
11:42AM 57.7667 -68.8500 211° Southwest 450 518 38,000  Level Montreal Center
11:43AM 57.6833 -68.9667 217° Southwest 450 518 38,000  Level Montreal Center
11:44AM 57.5667 -69.1167 215° Southwest 450 518 38,000  Level Montreal Center
11:45AM 57.4667 -69.2667 219° Southwest 450 518 38,000  Level Montreal Center
11:46AM 57.3667 -69.4000 216° Southwest 450 518 38,000  Level Montreal Center
11:47AM 57.2500 -69.5167 208° Southwest 450 518 38,000  Level Montreal Center
11:48AM 57.1500 -69.6333 212° Southwest 450 518 38,000  Level Montreal Center
11:49AM 57.0500 -69.7667 216° Southwest 450 518 38,000  Level Montreal Center
11:50AM 56.9333 -69.8833 209° Southwest 450 518 38,000  Level Montreal Center
11:51AM 56.8167 -70.0000 209° Southwest 450 518 38,000  Level Montreal Center
11:52AM 56.7000 -70.1333 212° Southwest 450 518 38,000  Level Montreal Center
11:53AM 56.6167 -70.2333 213° Southwest 450 518 38,000  Level Montreal Center
11:54AM 56.5000 -70.3500 209° Southwest 450 518 38,000  Level Montreal Center
11:55AM 56.3833 -70.4833 212° Southwest 450 518 38,000  Level Montreal Center
11:56AM 56.2833 -70.5833 209° Southwest 450 518 38,000  Level Montreal Center
11:57AM 56.1667 -70.7000 209° Southwest 450 518 38,000  Level Montreal Center
11:58AM 56.0667 -70.8000 209° Southwest 450 518 38,000  Level Montreal Center
11:59AM 55.9500 -70.9333 213° Southwest 460 529 38,000  Level Montreal Center
12:00PM 55.8333 -71.0500 209° Southwest 450 518 38,000  Level Montreal Center
12:01PM 55.7167 -71.1500 206° Southwest 450 518 38,000  Level Montreal Center
12:02PM 55.6167 -71.2500 209° Southwest 450 518 38,000  Level Montreal Center
12:03PM 55.5167 -71.3833 217° Southwest 450 518 38,000  Level Montreal Center
12:04PM 55.4000 -71.4833 206° Southwest 450 518 38,000  Level Montreal Center
12:05PM 55.3000 -71.5833 210° Southwest 450 518 38,000  Level Montreal Center
12:06PM 55.1833 -71.6833 206° Southwest 450 518 38,000  Level Montreal Center
12:07PM 55.0667 -71.8167 213° Southwest 450 518 38,000  Level Montreal Center
12:08PM 54.9500 -71.9167 206° Southwest 450 518 38,000  Level Montreal Center
12:09PM 54.8500 -72.0167 210° Southwest 450 518 38,000  Level Montreal Center
12:10PM 54.7500 -72.1167 210° Southwest 450 518 38,000  Level Montreal Center
12:11PM 54.6333 -72.2333 210° Southwest 450 518 38,000  Level Montreal Center
12:12PM 54.5167 -72.3333 206° Southwest 450 518 38,000  Level Montreal Center
12:13PM 54.4000 -72.4333 207° Southwest 450 518 38,000  Level Montreal Center
12:14PM 54.3000 -72.5500 214° Southwest 460 529 38,000  Level Montreal Center
12:15PM 54.1833 -72.6500 207° Southwest 450 518 38,000  Level Montreal Center
12:16PM 54.0667 -72.7500 207° Southwest 450 518 38,000  Level Montreal Center
12:17PM 53.9500 -72.8667 210° Southwest 460 529 38,000  Level Montreal Center
12:18PM 53.8333 -72.9667 207° Southwest 460 529 38,000  Level Montreal Center
12:19PM 53.7500 -73.0667 215° Southwest 450 518 38,000  Level Montreal Center
12:20PM 53.6333 -73.1833 211° Southwest 450 518 38,000  Level Montreal Center
12:21PM 53.5167 -73.2667 203° Southwest 450 518 38,000  Level Montreal Center
12:22PM 53.4000 -73.3667 207° Southwest 450 518 38,000  Level Montreal Center
12:23PM 53.3000 -73.4500 206° Southwest 460 529 38,000  Level Montreal Center
12:24PM 53.1667 -73.5833 211° Southwest 450 518 38,000  Level Montreal Center
12:25PM 53.0500 -73.6667 203° Southwest 460 529 38,000  Level Montreal Center
12:26PM 52.9500 -73.7833 215° Southwest 460 529 38,000  Level Montreal Center
12:27PM 52.8333 -73.8667 203° Southwest 450 518 38,000  Level Montreal Center
12:28PM 52.7167 -73.9667 207° Southwest 460 529 38,000  Level Montreal Center
12:29PM 52.6000 -74.0833 211° Southwest 460 529 38,000  Level Montreal Center
12:30PM 52.4833 -74.1667 204° Southwest 460 529 38,000  Level Montreal Center
12:31PM 52.3833 -74.2500 207° Southwest 460 529 38,000  Level Montreal Center
12:32PM 52.2667 -74.3667 211° Southwest 450 518 38,000  Level Montreal Center
12:33PM 52.1500 -74.4500 204° Southwest 430 495 38,000  Level Montreal Center
12:34PM 52.0333 -74.5333 204° Southwest 460 529 38,000  Level Montreal Center
12:35PM 51.9167 -74.6500 212° Southwest 470 541 38,000  Level Montreal Center
12:36PM 51.8000 -74.7333 204° Southwest 460 529 38,000  Level Montreal Center
12:37PM 51.6833 -74.8167 204° Southwest 460 529 38,000  Level Montreal Center
12:38PM 51.5833 -74.9000 207° Southwest 460 529 38,000  Level Montreal Center
12:39PM 51.4667 -75.0167 212° Southwest 460 529 38,000  Level Montreal Center
12:40PM 51.3500 -75.1000 204° Southwest 460 529 38,000  Level Montreal Center
12:41PM 51.2333 -75.1833 204° Southwest 460 529 38,000  Level Montreal Center
12:42PM 51.1167 -75.3000 212° Southwest 460 529 38,000  Level Montreal Center
12:43PM 51.0167 -75.3833 208° Southwest 460 529 38,000  Level Montreal Center
12:44PM 50.8833 -75.4833 205° Southwest 450 518 38,000  Level Montreal Center
12:45PM 50.7833 -75.5667 208° Southwest 460 529 38,000  Level Montreal Center
12:46PM 50.6667 -75.6500 204° Southwest 460 529 38,000  Level Montreal Center
12:47PM 50.5500 -75.7333 204° Southwest 460 529 38,000  Level Montreal Center
12:48PM 50.4333 -75.8333 209° Southwest 460 529 38,000  Level Montreal Center
12:49PM 50.3167 -75.9167 205° Southwest 460 529 38,000  Level Montreal Center
12:50PM 50.2000 -76.0167 209° Southwest 450 518 38,000  Level Montreal Center
12:51PM 50.1000 -76.1000 208° Southwest 450 518 38,000  Level Montreal Center
12:52PM 49.9667 -76.1667 198° South 460 529 38,000  Level Montreal Center
12:53PM 49.8500 -76.2500 205° Southwest 450 518 38,000  Level Montreal Center
12:54PM 49.7333 -76.3500 209° Southwest 460 529 38,000  Level Montreal Center
12:55PM 49.6167 -76.4333 205° Southwest 450 518 38,000  Level Montreal Center
12:56PM 49.5167 -76.5167 208° Southwest 460 529 38,000  Level Montreal Center
12:57PM 49.3833 -76.6167 206° Southwest 460 529 38,000  Level Montreal Center
12:58PM 49.2833 -76.6833 204° Southwest 460 529 38,000  Level Montreal Center
12:59PM 49.1667 -76.7833 209° Southwest 460 529 38,000  Level Montreal Center
01:00PM 49.0500 -76.8667 205° Southwest 460 529 38,000  Level Montreal Center
01:01PM 48.9333 -76.9333 201° Southwest 450 518 38,000  Level Montreal Center
01:02PM 48.8167 -77.0167 205° Southwest 460 529 38,000  Level Montreal Center
01:03PM 48.7167 -77.1167 213° Southwest 450 518 38,000  Level Montreal Center
01:04PM 48.5833 -77.1833 198° South 450 518 38,000  Level Montreal Center
01:05PM 48.4667 -77.2667 205° Southwest 450 518 38,000  Level Montreal Center
01:06PM 48.3500 -77.3500 205° Southwest 450 518 38,000  Level Montreal Center
01:07PM 48.2500 -77.4333 209° Southwest 450 518 38,000  Level Montreal Center
01:08PM 48.1333 -77.5000 201° Southwest 450 518 38,000  Level Montreal Center
01:09PM 48.0167 -77.6000 210° Southwest 450 518 38,000  Level Montreal Center
01:10PM 47.9000 -77.6667 201° Southwest 450 518 38,000  Level Montreal Center
01:11PM 47.7833 -77.7333 201° Southwest 450 518 38,000  Level Montreal Center
01:12PM 47.6667 -77.8167 206° Southwest 450 518 38,000  Level Montreal Center
01:13PM 47.5500 -77.9000 206° Southwest 450 518 38,000  Level Montreal Center
01:14PM 47.4333 -77.9833 206° Southwest 450 518 38,000  Level Montreal Center
01:15PM 47.3167 -78.0500 201° Southwest 450 518 38,000  Level Montreal Center
01:16PM 47.2167 -78.1500 214° Southwest 450 518 38,000  Level Montreal Center
01:17PM 47.1000 -78.2167 201° Southwest 450 518 38,000  Level Montreal Center
01:18PM 46.9833 -78.2833 201° Southwest 450 518 38,000  Level Montreal Center
01:19PM 46.8667 -78.3667 206° Southwest 450 518 38,000  Level Montreal Center
01:20PM 46.7500 -78.4333 201° Southwest 450 518 38,000  Level Montreal Center
01:21PM 46.6333 -78.5167 206° Southwest 450 518 38,000  Level Montreal Center
01:26PM 45.9813 -78.9320 206° Southwest 451 519 38,000  Level FlightAware ADS-B (CYOW)
01:27PM 45.9134 -78.9749 204° Southwest 450 518 38,000  Level FlightAware ADS-B (CYOW)
01:28PM 45.8370 -79.0230 204° Southwest 448 516 38,000  Level FlightAware ADS-B (CYOW)
01:31PM 45.4951 -79.2363 204° Southwest 452 520 38,000  Level FlightAware ADS-B (CYOW)
01:31PM 45.4196 -79.2832 204° Southwest 453 521 38,000  Level FlightAware ADS-B (CYOW)
01:32PM 45.3481 -79.3274 203° Southwest 453 521 38,000  Level FlightAware ADS-B (CYOW)
01:33PM 45.2877 -79.3646 203° Southwest 452 520 38,000  Level FlightAware ADS-B (CYOW)
01:34PM 45.1233 -79.4656 203° Southwest 450 518 38,000  Level FlightAware ADS-B (CYOW)
01:35PM 45.0145 -79.5320 203° Southwest 448 516 38,000  Level FlightAware ADS-B (CYOW)
01:36PM 44.9197 -79.5895 203° Southwest 446 513 38,000  Level FlightAware ADS-B (CYOW)
01:40PM 44.4817 -79.8827 206° Southwest 437 503 38,000  Level FlightAware ADS-B (CYKF)
01:42PM 44.2290 -80.1108 213° Southwest 436 502 38,000  Level FlightAware ADS-B (CYKF)
01:43PM 44.0982 -80.2271 213° Southwest 437 503 38,000  Level FlightAware ADS-B (CYKF)
01:44PM 44.0273 -80.2899 212° Southwest 434 499 38,000  Level FlightAware ADS-B (CYKF)
01:45PM 43.9722 -80.3387 213° Southwest 434 499 38,000  Level FlightAware ADS-B (CZBA)
01:45PM 43.9182 -80.3865 212° Southwest 433 498 38,000  Level FlightAware ADS-B (MDST / STI)
01:46PM 43.8569 -80.4405 212° Southwest 433 498 38,000  Level FlightAware ADS-B (CYKF)
01:46PM 43.7979 -80.4922 212° Southwest 433 498 38,000  Level FlightAware ADS-B (CZBA)
01:47PM 43.7266 -80.5546 212° Southwest 433 498 38,000  Level FlightAware ADS-B (CZBA)
01:48PM 43.6687 -80.6053 212° Southwest 433 498 38,000  Level FlightAware ADS-B (CYKF)
01:49PM 43.5946 -80.6699 212° Southwest 434 499 38,000  Level FlightAware ADS-B (CYKF)
01:49PM 43.5251 -80.7302 212° Southwest 433 498 38,000  Level FlightAware ADS-B (CYKF)
01:50PM 43.4505 -80.7948 212° Southwest 432 497 38,000  Level FlightAware ADS-B (CYKF)
01:51PM 43.3841 -80.8521 212° Southwest 432 497 38,000  Level FlightAware ADS-B (CYKF)
01:52PM 43.2829 -80.9394 212° Southwest 431 496 38,000  Level FlightAware ADS-B (CYKF)
01:52PM 43.2129 -80.9995 212° Southwest 430 495 38,000  Level FlightAware ADS-B (CYKF)
01:53PM 43.1459 -81.0569 212° Southwest 429 494 38,000  Level FlightAware ADS-B (CYKF)
01:54PM 43.0781 -81.1147 212° Southwest 429 494 38,000  Level FlightAware ADS-B (CYKF)
01:54PM 43.0087 -81.1663 209° Southwest 436 502 38,000  Level FlightAware ADS-B (CYKF)
01:55PM 42.9348 -81.2117 204° Southwest 434 499 38,000  Level FlightAware ADS-B (CYKF)
01:56PM 42.8661 -81.2551 205° Southwest 434 499 38,000  Level FlightAware ADS-B (CYKF)
01:56PM 42.8004 -81.2958 204° Southwest 435 501 38,000  Level FlightAware ADS-B (CYKF)
01:57PM 42.7172 -81.3469 204° Southwest 435 501 38,000  Level FlightAware ADS-B (CYKF)
01:57PM 42.6477 -81.3895 204° Southwest 435 501 38,000  Level FlightAware ADS-B (CYKF)
01:59PM 42.5330 -81.4594 204° Southwest 434 499 38,000  Level FlightAware ADS-B (CYKF)
01:59PM 42.4738 -81.4955 204° Southwest 433 498 38,000  Level FlightAware ADS-B (CYKF)
02:00PM 42.3833 -81.5333 204° Southwest 430 495 38,000  Level Toronto Center
02:01PM 42.2833 -81.6000 206° Southwest 430 495 38,000  Level Toronto Center
02:02PM 42.1667 -81.6500 198° South 430 495 38,000  Level Toronto Center
02:03PM 42.0667 -81.7167 206° Southwest 430 495 38,000  Level Toronto Center
02:04PM 41.9269 -81.8253 210° Southwest 432 497 38,000  Level Cleveland Center
02:05PM 41.8181 -81.8878 203° Southwest 426 490 38,000  Level Cleveland Center
02:06PM 41.7083 -81.9547 204° Southwest 427 491 38,000  Level Cleveland Center
02:07PM 41.5994 -82.0200 204° Southwest 427 491 38,000  Level Cleveland Center
02:08PM 41.4903 -82.0836 204° Southwest 427 491 38,000  Level Cleveland Center
02:09PM 41.3636 -82.1569 203° Southwest 427 491 38,000  Level Cleveland Center
02:10PM 41.2489 -82.1989 195° South 427 491 38,000  Level Cleveland Center
02:11PM 41.1331 -82.2422 196° South 429 494 38,000  Level Cleveland Center
02:12PM 41.0161 -82.2839 195° South 430 495 38,000  Level Cleveland Center
02:13PM 40.8989 -82.3256 195° South 431 496 38,000  Level Cleveland Center
02:14PM 40.7825 -82.3675 195° South 431 496 38,000  Level Cleveland Center
02:15PM 40.6461 -82.4142 195° South 432 497 38,000  Level Cleveland Center
02:17PM 40.5111 -82.4625 195° South 426 490 38,000  Level Indianapolis Center
02:22PM 39.8460 -82.6092 195° South 440 506 38,000  Level FlightAware ADS-B (KPMH)
02:23PM 39.7818 -82.6135 183° South 438 504 38,000  Level FlightAware ADS-B (KPMH)
02:24PM 39.6847 -82.6201 183° South 439 505 38,000  Level FlightAware ADS-B (KPMH)
02:24PM 39.6221 -82.6244 183° South 438 504 38,000  Level FlightAware ADS-B (KPMH)
02:25PM 39.5321 -82.6304 183° South 437 503 38,000  Level FlightAware ADS-B (KPMH)
02:26PM 39.4137 -82.6383 183° South 435 501 38,000  Level FlightAware ADS-B (KPMH)
02:26PM 39.3522 -82.6423 183° South 433 498 38,000  Level FlightAware ADS-B (KPMH)
02:27PM 39.2626 -82.6484 183° South 431 496 38,000  Level FlightAware ADS-B (KPMH)
02:28PM 39.2024 -82.6524 183° South 431 496 38,000  Level FlightAware ADS-B (KPMH)
02:28PM 39.1171 -82.6581 183° South 431 496 38,000  Level FlightAware ADS-B (KPMH)
02:29PM 39.0609 -82.6618 183° South 432 497 38,000  Level FlightAware ADS-B (KPMH)
02:30PM 38.9675 -82.6680 183° South 433 498 38,000  Level FlightAware ADS-B (KPMH)
02:30PM 38.9038 -82.6721 183° South 434 499 38,000  Level FlightAware ADS-B (KPMH)
02:31PM 38.8140 -82.6780 183° South 434 499 38,000  Level FlightAware ADS-B (KPMH)
02:31PM 38.7563 -82.6818 183° South 435 501 38,000  Level FlightAware ADS-B (KPMH)
02:32PM 38.6655 -82.6877 183° South 435 501 38,000  Level FlightAware ADS-B (KPMH)
02:33PM 38.6078 -82.6915 183° South 434 499 38,000  Level FlightAware ADS-B (KPMH)
02:33PM 38.5216 -82.6971 183° South 434 499 38,000  Level FlightAware ADS-B (KPMH)
02:34PM 38.4242 -82.7019 183° South 430 495 38,000  Level Indianapolis Center
02:35PM 38.3044 -82.7108 183° South 429 494 38,000  Level Indianapolis Center
02:36PM 38.1669 -82.7186 183° South 425 489 38,000  Level Indianapolis Center
02:37PM 38.0494 -82.7292 184° South 422 486 38,000  Level Indianapolis Center
02:38PM 37.9300 -82.7356 182° South 427 491 38,000  Level Indianapolis Center
02:39PM 37.8117 -82.7439 183° South 425 489 38,000  Level Indianapolis Center
02:40PM 37.6947 -82.7592 186° South 422 486 38,000  Level Indianapolis Center
02:42PM 37.5786 -82.8150 201° Southwest 386 444 38,000  Level Indianapolis Center
02:43PM 37.4875 -82.8775 209° Southwest 372 428 38,000  Level Indianapolis Center
02:44PM 37.3964 -82.9378 208° Southwest 372 428 38,000  Level Indianapolis Center
02:45PM 37.3064 -82.9967 207° Southwest 366 421 38,000  Level Indianapolis Center
02:46PM 37.2153 -83.0547 207° Southwest 366 421 38,000  Level Indianapolis Center
02:47PM 37.1119 -83.1228 208° Southwest 362 417 38,000  Level Indianapolis Center
02:48PM 37.0239 -83.1803 208° Southwest 360 414 38,000  Level Indianapolis Center
02:49PM 36.9350 -83.2375 207° Southwest 361 415 38,000  Level Indianapolis Center
02:50PM 36.8464 -83.2953 208° Southwest 361 415 38,000  Level Indianapolis Center
02:51PM 36.7425 -83.3625 207° Southwest 361 415 38,000  Level Indianapolis Center
02:52PM 36.6531 -83.4189 207° Southwest 360 414 38,000  Level Indianapolis Center
02:53PM 36.5636 -83.4764 207° Southwest 361 415 38,000  Level Indianapolis Center
02:54PM 36.4775 -83.5322 208° Southwest 360 414 38,000  Level Indianapolis Center
02:55PM 36.3875 -83.5908 208° Southwest 363 418 38,000  Level Indianapolis Center
02:56PM 36.2783 -83.6592 207° Southwest 365 420 38,000  Level Indianapolis Center
02:57PM 36.1856 -83.7181 207° Southwest 371 427 38,000  Level Indianapolis Center
02:58PM 36.0922 -83.7772 207° Southwest 374 430 38,000  Level Indianapolis Center
02:59PM 36.0394 -83.8128 209° Southwest 372 428 38,000  Level Atlanta Center
03:00PM 35.9622 -83.8592 206° Southwest 377 434 38,000  Level Atlanta Center
03:01PM 35.8517 -83.9106 201° Southwest 383 441 38,000  Level Atlanta Center
03:06PM 35.1915 -84.0673 201° Southwest 410 472 38,000  Level FlightAware ADS-B
03:06PM 35.1152 -84.0857 191° South 411 473 38,000  Level FlightAware ADS-B
03:07PM 35.0124 -84.1102 191° South 409 471 38,000  Level FlightAware ADS-B
03:08PM 34.9281 -84.1303 191° South 408 470 38,000  Level FlightAware ADS-B
03:09PM 34.8618 -84.1461 191° South 408 470 38,000  Level FlightAware ADS-B
03:09PM 34.7835 -84.1646 191° South 409 471 38,000  Level FlightAware ADS-B
03:10PM 34.7087 -84.1823 191° South 409 471 38,000  Level FlightAware ADS-B
03:11PM 34.6354 -84.1997 191° South 410 472 38,000  Level FlightAware ADS-B
03:11PM 34.5589 -84.2179 191° South 411 473 38,000  Level FlightAware ADS-B
03:12PM 34.4820 -84.2361 191° South 412 474 38,000  Level FlightAware ADS-B
03:13PM 34.4055 -84.2541 191° South 414 476 38,000  Level FlightAware ADS-B
03:13PM 34.3307 -84.2717 191° South 408 470 38,000  Level FlightAware ADS-B
03:14PM 34.2543 -84.2896 191° South 411 473 38,000  Level FlightAware ADS-B
03:15PM 34.1786 -84.3073 191° South 412 474 38,000  Level FlightAware ADS-B
03:15PM 34.1054 -84.3244 191° South 412 474 38,000  Level FlightAware ADS-B
03:16PM 34.0261 -84.3429 191° South 411 473 38,000  Level FlightAware ADS-B
03:17PM 33.9410 -84.3626 191° South 410 472 38,000  Level FlightAware ADS-B
03:18PM 33.9378 -84.3644 191° South 422 486 38,000  Level Atlanta Center
03:19PM 33.8208 -84.3914 191° South 427 491 38,000  Level Atlanta Center
03:20PM 33.7103 -84.4183 191° South 427 491 38,000  Level Atlanta Center
03:21PM 33.6183 -84.4356 189° South 427 491 38,000  Level Atlanta Center
03:22PM 33.4806 -84.4347 180° South 439 505 38,000  Level Atlanta Center
03:23PM 33.3575 -84.4342 180° South 439 505 38,000  Level Atlanta Center
03:24PM 33.2364 -84.4286 178° South 439 505 38,000  Level Atlanta Center
03:25PM 33.1172 -84.4308 181° South 439 505 38,000  Level Atlanta Center
03:26PM 32.9942 -84.4278 179° South 439 505 38,000  Level Atlanta Center
03:27PM 32.8628 -84.4247 179° South 439 505 38,000  Level Atlanta Center
03:28PM 32.7564 -84.4192 177° South 439 505 38,000  Level Atlanta Center
03:29PM 32.6353 -84.4161 179° South 439 505 38,000  Level Atlanta Center
03:30PM 32.5142 -84.4158 180° South 439 505 38,000  Level Atlanta Center
03:31PM 32.3911 -84.4128 179° South 439 505 38,000  Level Atlanta Center
03:32PM 32.2700 -84.4097 179° South 439 505 38,000  Level Atlanta Center
03:33PM 32.1469 -84.4069 179° South 439 505 38,000  Level Atlanta Center
03:34PM 32.0278 -84.4064 180° South 439 505 38,000  Level Atlanta Center
03:35PM 31.8944 -84.4000 178° South 458 527 38,000  Level Jacksonville Center
03:36PM 31.7881 -84.3981 179° South 445 512 38,000  Level Jacksonville Center
03:37PM 31.6669 -84.3961 179° South 439 505 38,000  Level Jacksonville Center
03:38PM 31.5314 -84.3964 180° South 439 505 38,000  Level Jacksonville Center
03:39PM 31.4081 -84.3919 178° South 445 512 38,000 -180 Level Jacksonville Center
03:44PM 30.7080 -84.3764 178° South 456 525 37,000 -180 Descending FlightAware ADS-B (KTLH)
03:45PM 30.6202 -84.3641 173° South 469 540 37,000  Level FlightAware ADS-B (KTLH)
03:45PM 30.5612 -84.3483 167° South 480 552 37,000  Level FlightAware ADS-B (KTLH)
03:46PM 30.4926 -84.3221 162° South 491 565 37,000  Level FlightAware ADS-B (KTLH)
03:47PM 30.4155 -84.2811 155° Southeast 499 574 37,000  Level FlightAware ADS-B (KTLH)
03:47PM 30.3531 -84.2403 151° Southeast 500 575 37,000  Level FlightAware ADS-B (KTLH)
03:48PM 30.2750 -84.1895 151° Southeast 497 572 37,000  Level FlightAware ADS-B (KTLH)
03:48PM 30.2116 -84.1482 151° Southeast 498 573 37,000  Level FlightAware ADS-B (KTLH)
03:49PM 30.1749 -84.1243 151° Southeast 498 573 37,000  Level FlightAware ADS-B (KTLH)
03:49PM 30.0899 -84.0691 151° Southeast 500 575 37,000  Level FlightAware ADS-B (KTLH)
03:50PM 30.0099 -84.0171 151° Southeast 501 577 37,000  Level FlightAware ADS-B (KTLH)
03:51PM 29.9275 -83.9636 151° Southeast 498 573 37,000  Level FlightAware ADS-B (KTLH)
03:52PM 29.8144 -83.8904 151° Southeast 498 573 37,000  Level FlightAware ADS-B (KTLH)
03:52PM 29.9378 -83.9703 331° Northwest 498 573 37,000  Level FlightAware ADS-B (KTLH)
03:53PM 29.7036 -83.8203 331° Northwest 498 573 37,000  Level Jacksonville Center
03:54PM 29.5831 -83.7428 151° Southeast 498 573 37,000  Level Jacksonville Center
03:55PM 29.4603 -83.6653 151° Southeast 498 573 37,000  Level Jacksonville Center
03:56PM 29.3253 -83.5786 151° Southeast 498 573 37,000  Level Jacksonville Center
03:57PM 29.2044 -83.5017 151° Southeast 498 573 37,000  Level Jacksonville Center
03:58PM 29.0839 -83.4247 151° Southeast 498 573 37,000  Level Jacksonville Center
04:03PM 28.4130 -82.9989 151° Southeast 495 570 37,000  Level FlightAware ADS-B (KMCO)
04:04PM 28.2761 -82.9132 151° Southeast 491 565 37,000  Level FlightAware ADS-B (KMCO)
04:05PM 28.2017 -82.8669 151° Southeast 488 562 37,000  Level FlightAware ADS-B (KMCO)
04:07PM 27.9896 -82.7351 151° Southeast 475 547 37,000  Level FlightAware ADS-B (KMCO)
04:08PM 27.8681 -82.6592 151° Southeast 475 547 37,000  Level FlightAware ADS-B (KMCO)
04:08PM 27.7955 -82.6098 149° Southeast 477 549 37,000  Level FlightAware ADS-B (KMCO)
04:09PM 27.7286 -82.5647 149° Southeast 475 547 37,000  Level FlightAware ADS-B (KMCO)
04:10PM 27.6464 -82.5099 149° Southeast 473 544 37,000  Level FlightAware ADS-B (KMCO)
04:10PM 27.5865 -82.4701 150° Southeast 472 543 37,000  Level FlightAware ADS-B (KMCO)
04:11PM 27.4584 -82.3850 149° Southeast 472 543 37,000  Level FlightAware ADS-B (KMCO)
04:12PM 27.3782 -82.3319 150° Southeast 472 543 37,000  Level FlightAware ADS-B (KMCO)
04:15PM 27.0633 -82.1866 158° South 459 528 37,000  Level FlightAware ADS-B (KMCO)
04:16PM 26.8632 -82.0995 159° South 458 527 37,000  Level FlightAware ADS-B (KMCO)
04:17PM 26.7816 -82.0641 159° South 459 528 37,000  Level FlightAware ADS-B (KMCO)
04:18PM 26.7100 -82.0331 159° South 460 529 37,000  Level FlightAware ADS-B (KMCO)
04:18PM 26.6212 -81.9946 159° South 462 532 37,000  Level FlightAware ADS-B (KMCO)
04:19PM 26.5424 -81.9604 159° South 464 534 37,000  Level FlightAware ADS-B (KMCO)
04:20PM 26.4606 -81.9252 159° South 466 536 37,000  Level FlightAware ADS-B (KMCO)
04:20PM 26.3839 -81.8921 159° South 464 534 37,000  Level FlightAware ADS-B (KMCO)
04:21PM 26.3029 -81.8572 159° South 464 534 37,000  Level FlightAware ADS-B (KMCO)
04:22PM 26.2224 -81.8225 159° South 464 534 37,000  Level FlightAware ADS-B (KMCO)
04:22PM 26.1578 -81.7949 159° South 465 535 37,000  Level FlightAware ADS-B (KMCO)
04:23PM 26.0575 -81.7519 159° South 466 536 37,000  Level FlightAware ADS-B (KMCO)
04:24PM 25.9594 -81.7100 159° South 468 539 37,000  Level FlightAware ADS-B (KMCO)
04:26PM 25.6530 -81.5803 159° South 470 541 37,000  Level FlightAware ADS-B (KMCO)
04:27PM 25.5353 -81.5539 159° South 462 532 37,000  Level Miami Center
04:28PM 25.4058 -81.5511 179° South 462 532 37,000  Level Miami Center
04:29PM 25.2839 -81.5761 191° South 448 516 37,000 -60 Level Miami Center
04:30PM 25.1594 -81.6128 195° South 448 516 36,900 -600 Descending Miami Center
04:31PM 25.0394 -81.6469 194° South 448 516 35,900 -1,140 Descending Miami Center
04:32PM 24.9003 -81.6875 195° South 460 529 34,700 -1,320 Descending Miami Center
04:33PM 24.7969 -81.7178 195° South 455 524 33,300 -1,500 Descending Miami Center
04:34PM 24.6789 -81.7519 195° South 450 518 31,700 -1,440 Descending Miami Center
04:35PM 24.5575 -81.8178 206° Southwest 440 506 30,500 -1,140 Descending Miami Center
04:36PM 24.4758 -81.8922 220° Southwest 409 471 29,500 -1,020 Descending Miami Center
04:37PM 24.4017 -81.9850 229° Southwest 397 457 28,500 -1,020 Descending Miami Center
04:38PM 24.3358 -82.0781 232° Southwest 397 457 27,500 -1,020 Descending Miami Center
04:39PM 24.2678 -82.1661 230° Southwest 397 457 26,500 -1,020 Descending Miami Center
04:40PM 24.2042 -82.2522 231° Southwest 386 444 25,500 -1,020 Descending Miami Center
04:41PM 24.1406 -82.3383 231° Southwest 380 437 24,500 -1,020 Descending Miami Center
04:42PM 24.0747 -82.4219 229° Southwest 374 430 23,500 -1,200 Descending Miami Center
04:44PM 23.9953 -82.4842 216° Southwest 363 418 22,200 -1,320 Descending Miami Center
04:45PM 23.9015 -82.5026 173° South  Level FlightAware Approximate
04:52PM 23.0624 -82.4025 170° South  Level FlightAware Approximate
04:53PM 22.9891 -82.4091 180° South  Level Estimated
04:54PM 22.9891 -82.4091 180° South  Level Estimated
04:55PM 22.9891 -82.4091 180° South  Level Estimated
04:56PM 22.9891 -82.4091 180° South  Level Estimated
04:57PM 22.9891 -82.4091 180° South  Level Estimated
04:58PM 22.9891 -82.4091 180° South  Level Estimated
04:59PM 22.9891 -82.4091 180° South  Level Estimated
05:00PM 22.9891 -82.4091 180° South  Level Estimated
05:01PM 22.9891 -82.4091 180° South  Level Estimated
05:02PM 22.9891 -82.4091 180° South  Level Estimated
05:03PM 22.9891 -82.4091 180° South  Level Estimated
05:04PM 22.9891 -82.4091 180° South  Level Estimated
05:05PM 22.9891 -82.4091 180° South  Level Estimated
05:06PM 22.9891 -82.4091 180° South  Level Estimated
05:07PM 22.9891 -82.4091 180° South  Level Estimated
05:08PM 22.9891 -82.4091 180° South  Level Estimated
05:09PM 22.9891 -82.4091 180° South  Level Estimated
05:10PM 22.9891 -82.4091 180° South  Level Estimated
05:11PM 22.9891 -82.4091 180° South  Level Estimated
05:12PM 22.9891 -82.4091 180° South  Level Estimated
05:13PM 22.9891 -82.4091 180° South  Level Estimated
05:14PM 22.9891 -82.4091 180° South  Level Estimated
05:15PM 22.9891 -82.4091 180° South  Level Estimated